Time;durP1;ratioP1;P1;durP2;ratioP2;P2;SDS_P1;SDS_P2;PMS_P1;PMS_P2;Temp;Humidity;BMP_temperature;BMP_pressure;BME280_temperature;BME280_humidity;BME280_pressure;Samples;Min_cycle;Max_cycle;Signal;HPM_P1;HPM_P2
2023/01/19 00:00:10;;;;;;;8.63;6.20;;;;;;;;;;5070090;28;20288;-67
2023/01/19 00:02:36;;;;;;;7.30;6.60;;;;;;;;;;5070085;28;20165;-68
2023/01/19 00:05:03;;;;;;;7.40;6.60;;;;;;;;;;5070413;28;20405;-66
2023/01/19 00:07:30;;;;;;;7.77;6.37;;;;;;;;;;5070258;28;20436;-67
2023/01/19 00:09:55;;;;;;;13.70;7.07;;;;;;;;;;5070215;28;20503;-68
2023/01/19 00:12:20;;;;;;;7.83;6.03;;;;;;;;;;5070162;28;20432;-66
2023/01/19 00:14:46;;;;;;;7.10;6.40;;;;;;;;;;5070549;28;20201;-65
2023/01/19 00:17:11;;;;;;;9.47;6.77;;;;;;;;;;5071288;28;20198;-68
2023/01/19 00:19:37;;;;;;;11.90;7.20;;;;;;;;;;5074840;28;20177;-67
2023/01/19 00:22:04;;;;;;;10.07;7.17;;;;;;;;;;5073843;28;20181;-66
2023/01/19 00:24:30;;;;;;;10.03;7.10;;;;;;;;;;5074112;28;20174;-68
2023/01/19 00:26:56;;;;;;;7.80;6.13;;;;;;;;;;5074091;28;20431;-67
2023/01/19 00:29:22;;;;;;;14.70;7.50;;;;;;;;;;5074415;28;20459;-66
2023/01/19 00:31:47;;;;;;;9.50;6.73;;;;;;;;;;5073998;28;20182;-67
2023/01/19 00:34:12;;;;;;;12.70;8.20;;;;;;;;;;5074264;28;20216;-67
2023/01/19 00:36:38;;;;;;;7.97;5.57;;;;;;;;;;5074164;28;20230;-67
2023/01/19 00:39:03;;;;;;;7.17;5.90;;;;;;;;;;5074127;28;20646;-67
2023/01/19 00:44:14;;;;;;;10.00;7.60;;;;;;;;;;5074288;28;20280;-66
2023/01/19 00:46:39;;;;;;;10.60;6.13;;;;;;;;;;5073708;28;20523;-67
2023/01/19 00:49:05;;;;;;;7.27;6.57;;;;;;;;;;5073779;28;20538;-67
2023/01/19 00:51:31;;;;;;;8.93;7.30;;;;;;;;;;5073377;28;20810;-66
2023/01/19 00:53:58;;;;;;;13.33;7.10;;;;;;;;;;5056255;28;20242;-66
2023/01/19 00:56:24;;;;;;;11.63;7.17;;;;;;;;;;5052674;28;20433;-66
2023/01/19 00:58:49;;;;;;;13.63;7.50;;;;;;;;;;5052026;28;20401;-66
2023/01/19 01:01:15;;;;;;;11.70;6.77;;;;;;;;;;5052837;28;20257;-67
2023/01/19 01:03:40;;;;;;;8.20;7.33;;;;;;;;;;5052553;28;20189;-68
2023/01/19 01:06:07;;;;;;;10.97;6.90;;;;;;;;;;5053308;28;20556;-66
2023/01/19 01:08:33;;;;;;;9.77;6.70;;;;;;;;;;5053374;28;20175;-67
2023/01/19 01:10:59;;;;;;;8.70;7.50;;;;;;;;;;5053101;28;20405;-67
2023/01/19 01:13:25;;;;;;;7.57;6.37;;;;;;;;;;5053326;28;20405;-66
2023/01/19 01:15:52;;;;;;;10.53;7.07;;;;;;;;;;5053100;28;20202;-65
2023/01/19 01:18:17;;;;;;;9.90;6.80;;;;;;;;;;5053581;28;20980;-68
2023/01/19 01:20:43;;;;;;;9.77;6.60;;;;;;;;;;5052924;28;20409;-66
2023/01/19 01:23:08;;;;;;;23.60;8.30;;;;;;;;;;5052994;28;20167;-67
2023/01/19 01:25:37;;;;;;;26.07;8.90;;;;;;;;;;5053101;28;20632;-66
2023/01/19 01:28:07;;;;;;;13.40;7.63;;;;;;;;;;5052835;28;20228;-66
2023/01/19 01:30:34;;;;;;;16.37;7.40;;;;;;;;;;5061921;28;20441;-66
2023/01/19 01:32:59;;;;;;;18.83;7.50;;;;;;;;;;5073230;28;20412;-67
2023/01/19 01:35:25;;;;;;;8.43;6.10;;;;;;;;;;5073148;28;20408;-66
2023/01/19 01:37:50;;;;;;;10.20;6.70;;;;;;;;;;5073149;28;20173;-67
2023/01/19 01:40:17;;;;;;;8.60;6.90;;;;;;;;;;5072962;28;20170;-67
2023/01/19 01:42:44;;;;;;;10.17;7.07;;;;;;;;;;5072723;28;20162;-67
2023/01/19 01:45:32;;;;;;;9.63;7.80;;;;;;;;;;5072985;28;20464;-66
2023/01/19 01:48:07;;;;;;;9.60;7.60;;;;;;;;;;5072731;28;20546;-66
2023/01/19 01:50:35;;;;;;;22.40;8.00;;;;;;;;;;5077912;28;20451;-65
2023/01/19 01:53:06;;;;;;;11.60;7.23;;;;;;;;;;5080961;28;20878;-65
2023/01/19 01:55:36;;;;;;;7.47;6.67;;;;;;;;;;5075286;28;20409;-66
2023/01/19 01:58:04;;;;;;;19.30;12.17;;;;;;;;;;5074278;28;20408;-67
2023/01/19 02:02:49;;;;;;;17.80;9.67;;;;;;;;;;5073268;28;20400;-67
2023/01/19 02:03:19;;;;;;;8.43;7.47;;;;;;;;;;5072652;28;20420;-66
2023/01/19 02:05:45;;;;;;;9.47;7.40;;;;;;;;;;5072409;28;20421;-67
2023/01/19 02:13:48;;;;;;;23.90;7.40;;;;;;;;;;5072539;28;20922;-67
2023/01/19 02:16:15;;;;;;;8.23;7.33;;;;;;;;;;5071876;28;20479;-66
2023/01/19 02:18:41;;;;;;;10.37;7.80;;;;;;;;;;5071807;28;20400;-66
2023/01/19 02:21:24;;;;;;;11.00;7.20;;;;;;;;;;5071531;28;20478;-67
2023/01/19 02:23:52;;;;;;;8.30;7.50;;;;;;;;;;5071763;28;20492;-67
2023/01/19 02:26:24;;;;;;;13.50;8.60;;;;;;;;;;5071732;28;20428;-67
2023/01/19 02:28:58;;;;;;;13.50;7.97;;;;;;;;;;5071703;28;20555;-67
2023/01/19 02:31:25;;;;;;;10.73;7.90;;;;;;;;;;5071450;28;20952;-67
2023/01/19 02:33:51;;;;;;;11.37;8.40;;;;;;;;;;5071675;28;20490;-66
2023/01/19 02:36:24;;;;;;;15.70;7.83;;;;;;;;;;5071440;28;20432;-66
2023/01/19 02:38:50;;;;;;;9.47;7.87;;;;;;;;;;5071583;28;20425;-66
2023/01/19 02:41:20;;;;;;;12.37;8.03;;;;;;;;;;5070592;28;20488;-66
2023/01/19 02:43:47;;;;;;;14.83;9.00;;;;;;;;;;5071441;28;20409;-65
2023/01/19 02:46:17;;;;;;;9.80;8.63;;;;;;;;;;5071420;28;20813;-67
2023/01/19 02:48:42;;;;;;;21.77;8.73;;;;;;;;;;5071188;28;20412;-67
2023/01/19 02:51:21;;;;;;;18.63;8.90;;;;;;;;;;5070873;28;20408;-67
2023/01/19 02:54:05;;;;;;;17.33;8.53;;;;;;;;;;5071220;28;20261;-67
2023/01/19 02:56:48;;;;;;;10.40;7.83;;;;;;;;;;5071282;28;20430;-67
2023/01/19 02:59:26;;;;;;;8.50;7.10;;;;;;;;;;5070967;28;20413;-67
2023/01/19 03:02:07;;;;;;;13.37;8.87;;;;;;;;;;5070667;28;20467;-66
2023/01/19 03:04:35;;;;;;;10.73;8.30;;;;;;;;;;5070798;28;20909;-66
2023/01/19 03:07:10;;;;;;;14.03;7.60;;;;;;;;;;5070978;28;20452;-66
2023/01/19 03:09:44;;;;;;;8.60;7.70;;;;;;;;;;5070934;28;20972;-66
2023/01/19 03:12:17;;;;;;;12.40;8.13;;;;;;;;;;5070564;28;20546;-66
2023/01/19 03:14:46;;;;;;;13.20;9.00;;;;;;;;;;5070925;28;20462;-65
2023/01/19 03:17:16;;;;;;;10.97;8.37;;;;;;;;;;5071002;28;20546;-66
2023/01/19 03:19:43;;;;;;;13.87;8.13;;;;;;;;;;5070789;28;20389;-66
2023/01/19 03:22:16;;;;;;;12.10;8.97;;;;;;;;;;5070737;28;20409;-66
2023/01/19 03:24:44;;;;;;;11.50;7.87;;;;;;;;;;5070731;28;20408;-69
2023/01/19 03:27:16;;;;;;;15.53;8.23;;;;;;;;;;5070627;28;20435;-66
2023/01/19 03:29:49;;;;;;;16.50;8.60;;;;;;;;;;5070495;28;20543;-67
2023/01/19 03:32:18;;;;;;;11.17;7.97;;;;;;;;;;5070272;28;20411;-67
2023/01/19 03:34:46;;;;;;;10.77;8.57;;;;;;;;;;5070454;28;20822;-67
2023/01/19 03:37:15;;;;;;;15.87;8.27;;;;;;;;;;5070621;28;20429;-67
2023/01/19 03:39:41;;;;;;;13.10;8.60;;;;;;;;;;5070454;28;20413;-67
2023/01/19 03:42:12;;;;;;;12.43;9.13;;;;;;;;;;5070098;28;20408;-66
2023/01/19 03:44:39;;;;;;;11.97;8.87;;;;;;;;;;5070562;28;20224;-67
2023/01/19 03:47:08;;;;;;;14.43;9.83;;;;;;;;;;5070364;28;20436;-66
2023/01/19 03:49:35;;;;;;;12.10;9.47;;;;;;;;;;5070429;28;20460;-67
2023/01/19 03:52:01;;;;;;;10.90;8.70;;;;;;;;;;5052024;28;20436;-67
2023/01/19 03:54:27;;;;;;;11.30;8.60;;;;;;;;;;5070316;28;20486;-65
2023/01/19 03:56:52;;;;;;;10.13;8.97;;;;;;;;;;5070381;28;20197;-67
2023/01/19 03:59:18;;;;;;;11.73;8.43;;;;;;;;;;5070312;28;20401;-66
2023/01/19 04:01:45;;;;;;;9.97;8.77;;;;;;;;;;5070179;28;20196;-66
2023/01/19 04:04:12;;;;;;;10.93;7.83;;;;;;;;;;5070017;28;20435;-66
2023/01/19 04:06:37;;;;;;;12.00;8.23;;;;;;;;;;5070156;28;20507;-66
2023/01/19 04:09:03;;;;;;;11.90;9.03;;;;;;;;;;5070340;28;20603;-66
2023/01/19 04:11:28;;;;;;;12.53;8.30;;;;;;;;;;5070082;28;20244;-66
2023/01/19 04:13:54;;;;;;;13.23;9.20;;;;;;;;;;5070476;28;20182;-66
2023/01/19 04:16:20;;;;;;;10.77;8.90;;;;;;;;;;5070530;28;20309;-65
2023/01/19 04:18:45;;;;;;;9.97;8.93;;;;;;;;;;5070277;28;20207;-65
2023/01/19 04:21:11;;;;;;;9.70;8.70;;;;;;;;;;5070029;28;20416;-66
2023/01/19 04:23:36;;;;;;;12.40;9.20;;;;;;;;;;5070458;28;20174;-66
2023/01/19 04:26:06;;;;;;;10.23;8.40;;;;;;;;;;5070276;28;20200;-66
2023/01/19 04:28:34;;;;;;;11.90;8.07;;;;;;;;;;5070667;28;20686;-66
2023/01/19 04:31:00;;;;;;;11.67;9.20;;;;;;;;;;5070614;28;20432;-69
2023/01/19 04:33:26;;;;;;;11.90;9.50;;;;;;;;;;5070422;28;20442;-66
2023/01/19 04:35:52;;;;;;;9.27;7.63;;;;;;;;;;5070643;28;20190;-66
2023/01/19 04:38:19;;;;;;;12.97;8.63;;;;;;;;;;5070873;28;20421;-66
2023/01/19 04:40:45;;;;;;;19.23;9.90;;;;;;;;;;5070505;28;20441;-65
2023/01/19 04:43:10;;;;;;;9.70;8.70;;;;;;;;;;5071411;28;20432;-65
2023/01/19 04:45:36;;;;;;;13.43;8.13;;;;;;;;;;5072542;28;20411;-67
2023/01/19 04:48:05;;;;;;;11.83;8.90;;;;;;;;;;5073393;28;20174;-67
2023/01/19 04:50:31;;;;;;;11.10;7.93;;;;;;;;;;5073203;28;20262;-66
2023/01/19 04:52:57;;;;;;;15.97;9.27;;;;;;;;;;5071857;28;20823;-65
2023/01/19 04:55:23;;;;;;;15.03;10.40;;;;;;;;;;5069971;28;20408;-65
2023/01/19 04:57:48;;;;;;;19.60;12.63;;;;;;;;;;5069906;28;20416;-66
2023/01/19 05:00:14;;;;;;;11.13;9.60;;;;;;;;;;5069390;28;20259;-64
2023/01/19 05:02:42;;;;;;;10.63;8.40;;;;;;;;;;5069454;28;20646;-66
2023/01/19 05:05:08;;;;;;;9.73;8.73;;;;;;;;;;5073489;28;20545;-66
2023/01/19 05:07:34;;;;;;;12.40;8.73;;;;;;;;;;5073108;28;20914;-65
2023/01/19 05:09:59;;;;;;;20.80;9.80;;;;;;;;;;5073371;28;20300;-65
2023/01/19 05:12:25;;;;;;;16.90;9.57;;;;;;;;;;5072817;28;20260;-66
2023/01/19 05:14:50;;;;;;;13.43;8.77;;;;;;;;;;5073184;28;20181;-66
2023/01/19 05:17:15;;;;;;;11.50;9.30;;;;;;;;;;5072652;28;20572;-67
2023/01/19 05:19:41;;;;;;;14.43;9.23;;;;;;;;;;5073055;28;20173;-65
2023/01/19 05:22:06;;;;;;;13.07;8.60;;;;;;;;;;5072883;28;20257;-67
2023/01/19 05:24:32;;;;;;;16.20;9.40;;;;;;;;;;5073027;28;20257;-66
2023/01/19 05:26:57;;;;;;;22.50;9.83;;;;;;;;;;5073072;28;20354;-67
2023/01/19 05:29:23;;;;;;;11.83;8.90;;;;;;;;;;5072815;28;20198;-66
2023/01/19 05:31:48;;;;;;;11.90;8.43;;;;;;;;;;5072498;28;20538;-66
2023/01/19 05:34:14;;;;;;;16.43;8.93;;;;;;;;;;5072727;28;20223;-67
2023/01/19 05:36:40;;;;;;;21.50;9.73;;;;;;;;;;5072737;28;20268;-66
2023/01/19 05:39:06;;;;;;;19.90;8.47;;;;;;;;;;5072573;28;20174;-67
2023/01/19 05:41:31;;;;;;;16.40;9.27;;;;;;;;;;5072248;28;20420;-66
2023/01/19 05:43:56;;;;;;;11.73;9.03;;;;;;;;;;5072561;28;20546;-66
2023/01/19 05:46:23;;;;;;;10.33;8.50;;;;;;;;;;5072507;28;20671;-66
2023/01/19 05:48:49;;;;;;;11.80;8.83;;;;;;;;;;5072358;28;20715;-67
2023/01/19 05:51:14;;;;;;;12.50;9.13;;;;;;;;;;5072188;28;20417;-66
2023/01/19 05:53:39;;;;;;;13.43;10.37;;;;;;;;;;5072265;28;20166;-66
2023/01/19 05:56:09;;;;;;;11.80;8.87;;;;;;;;;;5072313;28;20259;-66
2023/01/19 05:58:41;;;;;;;14.00;9.87;;;;;;;;;;5072112;28;20256;-67
2023/01/19 06:01:08;;;;;;;14.07;9.57;;;;;;;;;;5067722;28;20443;-66
2023/01/19 06:03:34;;;;;;;22.73;12.87;;;;;;;;;;5063484;28;20920;-66
2023/01/19 06:06:00;;;;;;;15.17;9.77;;;;;;;;;;5064790;28;20549;-65
2023/01/19 06:08:26;;;;;;;11.50;9.53;;;;;;;;;;5057231;28;20472;-67
2023/01/19 06:10:52;;;;;;;12.27;9.27;;;;;;;;;;5062888;28;20550;-67
2023/01/19 06:13:17;;;;;;;16.27;8.20;;;;;;;;;;5059207;28;20305;-66
2023/01/19 06:15:43;;;;;;;10.83;9.03;;;;;;;;;;5062545;28;20205;-67
2023/01/19 06:18:09;;;;;;;12.77;9.47;;;;;;;;;;5061449;28;20178;-67
2023/01/19 06:20:35;;;;;;;26.87;10.87;;;;;;;;;;5068831;28;20935;-65
2023/01/19 06:23:00;;;;;;;35.87;11.50;;;;;;;;;;5071073;28;20186;-66
2023/01/19 06:25:26;;;;;;;16.93;8.93;;;;;;;;;;5059200;28;20213;-66
2023/01/19 06:27:51;;;;;;;12.00;8.60;;;;;;;;;;5051013;28;20612;-66
2023/01/19 06:30:17;;;;;;;17.43;10.23;;;;;;;;;;5063940;28;20210;-66
2023/01/19 06:32:43;;;;;;;18.07;9.73;;;;;;;;;;5054935;28;20178;-66
2023/01/19 06:35:08;;;;;;;15.37;10.00;;;;;;;;;;5066161;28;20181;-66
2023/01/19 06:37:34;;;;;;;13.60;9.60;;;;;;;;;;5057783;28;20667;-66
2023/01/19 06:40:00;;;;;;;14.80;9.47;;;;;;;;;;5060717;28;20202;-67
2023/01/19 06:42:25;;;;;;;19.40;9.30;;;;;;;;;;5062222;28;20844;-66
2023/01/19 06:44:51;;;;;;;15.53;9.77;;;;;;;;;;5064011;28;20671;-66
2023/01/19 06:47:16;;;;;;;14.60;9.87;;;;;;;;;;5065224;28;20209;-67
2023/01/19 06:49:42;;;;;;;17.00;10.13;;;;;;;;;;5060940;28;20201;-67
2023/01/19 06:52:14;;;;;;;34.53;10.27;;;;;;;;;;5059684;28;20190;-66
2023/01/19 06:54:40;;;;;;;31.83;12.00;;;;;;;;;;5063552;28;20170;-66
2023/01/19 06:57:05;;;;;;;48.87;13.87;;;;;;;;;;5062186;28;20552;-67
2023/01/19 06:59:31;;;;;;;16.80;10.00;;;;;;;;;;5069730;28;20254;-66
2023/01/19 07:01:56;;;;;;;15.40;10.30;;;;;;;;;;5061043;28;20209;-67
2023/01/19 07:04:22;;;;;;;16.70;10.17;;;;;;;;;;5069806;28;20265;-65
2023/01/19 07:06:47;;;;;;;25.30;10.57;;;;;;;;;;5069734;28;20598;-66
2023/01/19 07:09:12;;;;;;;12.60;9.37;;;;;;;;;;5066449;28;20266;-66
2023/01/19 07:11:38;;;;;;;14.70;10.10;;;;;;;;;;5069591;28;20185;-67
2023/01/19 07:14:04;;;;;;;18.00;9.87;;;;;;;;;;5070093;28;20763;-66
2023/01/19 07:16:30;;;;;;;18.30;9.30;;;;;;;;;;5067544;28;20603;-67
2023/01/19 07:18:55;;;;;;;13.43;10.00;;;;;;;;;;5069387;28;20188;-67
2023/01/19 07:21:21;;;;;;;12.27;8.30;;;;;;;;;;5066782;28;20198;-66
2023/01/19 07:23:50;;;;;;;20.50;10.17;;;;;;;;;;5062951;28;20197;-65
2023/01/19 07:26:19;;;;;;;22.57;10.80;;;;;;;;;;5069753;28;20248;-65
2023/01/19 07:28:45;;;;;;;14.70;9.70;;;;;;;;;;5049564;28;20421;-67
2023/01/19 07:31:11;;;;;;;19.30;9.70;;;;;;;;;;5063571;28;20416;-66
2023/01/19 07:33:36;;;;;;;15.40;9.03;;;;;;;;;;5070199;28;20408;-66
2023/01/19 07:36:02;;;;;;;13.87;10.23;;;;;;;;;;5067960;28;20237;-67
2023/01/19 07:38:28;;;;;;;17.63;10.67;;;;;;;;;;5069668;28;20686;-66
2023/01/19 07:41:04;;;;;;;13.57;9.50;;;;;;;;;;5068111;28;20626;-65
2023/01/19 07:43:29;;;;;;;17.17;10.40;;;;;;;;;;5061750;28;20201;-66
2023/01/19 07:46:00;;;;;;;12.90;9.10;;;;;;;;;;5069517;28;20854;-67
2023/01/19 07:48:26;;;;;;;34.33;11.27;;;;;;;;;;5068349;28;20553;-66
2023/01/19 07:50:52;;;;;;;18.80;10.13;;;;;;;;;;5062335;28;20507;-66
2023/01/19 07:53:18;;;;;;;48.80;13.30;;;;;;;;;;5069552;28;20422;-66
2023/01/19 07:55:43;;;;;;;17.43;10.60;;;;;;;;;;5068509;28;20241;-65
2023/01/19 07:58:09;;;;;;;65.27;12.27;;;;;;;;;;5069406;28;20257;-67
2023/01/19 08:00:36;;;;;;;74.07;14.67;;;;;;;;;;5069836;28;20583;-67
2023/01/19 08:03:02;;;;;;;18.67;10.57;;;;;;;;;;5068457;28;20186;-66
2023/01/19 08:05:28;;;;;;;15.43;9.03;;;;;;;;;;5069685;28;20606;-67
2023/01/19 08:07:56;;;;;;;10.80;9.00;;;;;;;;;;5067456;28;20526;-66
2023/01/19 08:10:25;;;;;;;11.43;10.00;;;;;;;;;;5064913;28;20202;-67
2023/01/19 08:12:52;;;;;;;16.60;9.50;;;;;;;;;;5069374;28;20408;-65
2023/01/19 08:15:17;;;;;;;10.83;9.80;;;;;;;;;;5069680;28;20491;-66
2023/01/19 08:17:43;;;;;;;11.40;10.23;;;;;;;;;;5069791;28;20546;-67
2023/01/19 08:20:10;;;;;;;12.00;10.33;;;;;;;;;;5070223;28;20178;-66
2023/01/19 08:22:36;;;;;;;13.47;11.17;;;;;;;;;;5066045;28;20629;-66
2023/01/19 08:25:01;;;;;;;10.90;9.80;;;;;;;;;;5069859;28;20461;-66
2023/01/19 08:27:27;;;;;;;19.97;11.43;;;;;;;;;;5063593;28;20491;-66
2023/01/19 08:29:53;;;;;;;14.00;11.20;;;;;;;;;;5063173;28;20197;-65
2023/01/19 08:32:19;;;;;;;13.63;10.73;;;;;;;;;;5063443;28;20201;-66
2023/01/19 08:34:44;;;;;;;15.37;11.83;;;;;;;;;;5068415;28;20424;-65
2023/01/19 08:37:10;;;;;;;17.33;11.77;;;;;;;;;;5068388;28;20201;-66
2023/01/19 08:39:35;;;;;;;11.70;10.37;;;;;;;;;;5072744;28;20175;-66
2023/01/19 08:42:01;;;;;;;14.97;11.37;;;;;;;;;;5070813;28;20182;-65
2023/01/19 08:44:26;;;;;;;14.00;11.43;;;;;;;;;;5073352;28;20756;-65
2023/01/19 08:46:52;;;;;;;14.53;11.50;;;;;;;;;;5073547;28;20215;-65
2023/01/19 08:49:18;;;;;;;13.50;11.60;;;;;;;;;;5073569;28;20190;-65
2023/01/19 08:51:45;;;;;;;12.87;11.53;;;;;;;;;;5073098;28;20504;-66
2023/01/19 08:54:11;;;;;;;26.57;12.80;;;;;;;;;;5073807;28;20174;-65
2023/01/19 08:56:37;;;;;;;23.60;11.97;;;;;;;;;;5069413;28;20801;-68
2023/01/19 08:59:02;;;;;;;28.00;11.70;;;;;;;;;;5072562;28;20213;-66
2023/01/19 09:01:27;;;;;;;22.53;11.63;;;;;;;;;;5065604;28;20269;-66
2023/01/19 09:03:53;;;;;;;20.93;13.03;;;;;;;;;;5068292;28;20174;-67
2023/01/19 09:06:19;;;;;;;21.37;11.90;;;;;;;;;;5065081;28;20778;-68
2023/01/19 09:08:45;;;;;;;57.43;15.90;;;;;;;;;;5052682;28;20202;-65
2023/01/19 09:11:13;;;;;;;73.00;14.70;;;;;;;;;;5052658;28;20182;-67
2023/01/19 09:13:40;;;;;;;23.23;12.57;;;;;;;;;;5052524;28;20413;-65
2023/01/19 09:16:06;;;;;;;18.77;11.90;;;;;;;;;;5052688;28;20453;-65
2023/01/19 09:18:33;;;;;;;15.80;12.03;;;;;;;;;;5060574;28;20970;-65
2023/01/19 09:20:59;;;;;;;16.33;12.17;;;;;;;;;;5072378;28;20411;-67
2023/01/19 09:23:25;;;;;;;18.70;12.10;;;;;;;;;;5072548;28;20447;-65
2023/01/19 09:25:56;;;;;;;15.53;11.63;;;;;;;;;;5072126;28;20940;-66
2023/01/19 09:28:21;;;;;;;13.03;10.80;;;;;;;;;;5072115;28;20174;-66
2023/01/19 09:30:46;;;;;;;14.03;10.60;;;;;;;;;;5071956;28;20457;-66
2023/01/19 09:33:14;;;;;;;13.80;11.10;;;;;;;;;;5072128;28;20174;-67
2023/01/19 09:35:40;;;;;;;27.07;12.53;;;;;;;;;;5071897;28;20213;-66
2023/01/19 09:38:07;;;;;;;18.23;12.30;;;;;;;;;;5072077;28;20408;-67
2023/01/19 09:40:35;;;;;;;29.73;13.70;;;;;;;;;;5071663;28;20419;-66
2023/01/19 09:43:19;;;;;;;15.97;11.70;;;;;;;;;;5072213;28;20483;-67
2023/01/19 09:46:02;;;;;;;19.00;11.53;;;;;;;;;;5071861;28;20437;-68
2023/01/19 09:48:44;;;;;;;12.40;10.67;;;;;;;;;;5072112;28;20412;-67
2023/01/19 09:51:14;;;;;;;60.97;14.03;;;;;;;;;;5071643;28;20495;-66
2023/01/19 09:54:12;;;;;;;34.57;11.60;;;;;;;;;;5069070;28;20460;-66
2023/01/19 09:56:37;;;;;;;24.33;10.63;;;;;;;;;;5071755;28;20428;-66
2023/01/19 09:59:18;;;;;;;16.00;10.20;;;;;;;;;;5071451;28;20489;-66
2023/01/19 10:01:51;;;;;;;12.80;10.90;;;;;;;;;;5071577;28;20227;-66
2023/01/19 10:04:25;;;;;;;14.00;10.37;;;;;;;;;;5069812;28;20985;-64
2023/01/19 10:06:58;;;;;;;12.53;11.13;;;;;;;;;;5061638;28;20455;-66
2023/01/19 10:09:32;;;;;;;15.13;10.90;;;;;;;;;;5070678;28;20459;-66
2023/01/19 10:12:12;;;;;;;17.93;11.03;;;;;;;;;;5071903;28;20522;-68
2023/01/19 10:14:49;;;;;;;19.50;10.47;;;;;;;;;;5071806;28;20491;-66
2023/01/19 10:17:43;;;;;;;15.33;11.20;;;;;;;;;;5072378;28;20486;-67
2023/01/19 10:20:16;;;;;;;16.57;11.27;;;;;;;;;;5069814;28;20435;-68
2023/01/19 10:22:47;;;;;;;17.20;10.77;;;;;;;;;;5072187;28;20408;-68
2023/01/19 10:25:18;;;;;;;14.93;11.00;;;;;;;;;;5071919;28;20412;-68
2023/01/19 10:27:45;;;;;;;26.87;11.53;;;;;;;;;;5067715;28;20468;-70
2023/01/19 10:30:18;;;;;;;20.03;12.10;;;;;;;;;;5071310;28;20894;-68
2023/01/19 10:32:44;;;;;;;16.70;11.20;;;;;;;;;;5066722;28;20432;-67
2023/01/19 10:35:23;;;;;;;12.73;10.60;;;;;;;;;;5071377;28;20419;-67
2023/01/19 10:37:55;;;;;;;13.93;9.70;;;;;;;;;;5071727;28;20531;-69
2023/01/19 10:40:46;;;;;;;16.60;11.30;;;;;;;;;;5068348;28;20428;-66
2023/01/19 10:43:35;;;;;;;20.43;11.20;;;;;;;;;;5068693;28;20482;-69
2023/01/19 10:46:04;;;;;;;23.30;11.53;;;;;;;;;;5070029;28;20460;-66
2023/01/19 10:48:37;;;;;;;25.43;10.60;;;;;;;;;;5051290;28;20405;-68
2023/01/19 10:51:04;;;;;;;11.90;9.80;;;;;;;;;;5050707;28;20887;-67
2023/01/19 10:53:29;;;;;;;13.90;10.83;;;;;;;;;;5057562;28;20428;-68
2023/01/19 10:56:11;;;;;;;17.30;10.33;;;;;;;;;;5067539;28;21263;-67
2023/01/19 10:58:36;;;;;;;12.57;9.50;;;;;;;;;;5063537;28;20673;-69
2023/01/19 11:01:19;;;;;;;10.97;9.60;;;;;;;;;;5069855;28;20405;-67
2023/01/19 11:03:45;;;;;;;10.70;9.50;;;;;;;;;;5070743;28;20189;-69
2023/01/19 11:06:16;;;;;;;13.73;9.70;;;;;;;;;;5069526;28;20452;-66
2023/01/19 11:08:44;;;;;;;11.97;9.70;;;;;;;;;;5064810;28;20233;-67
2023/01/19 11:11:11;;;;;;;15.23;9.30;;;;;;;;;;5068855;28;20478;-68
2023/01/19 11:13:38;;;;;;;124.90;20.53;;;;;;;;;;5070505;28;20498;-68
2023/01/19 11:16:16;;;;;;;150.07;22.77;;;;;;;;;;5064497;28;20950;-67
2023/01/19 11:18:42;;;;;;;47.13;13.40;;;;;;;;;;5068982;28;20489;-68
2023/01/19 11:21:13;;;;;;;39.07;12.07;;;;;;;;;;5069409;28;20411;-67
2023/01/19 11:23:44;;;;;;;30.23;12.07;;;;;;;;;;5069360;28;20443;-68
2023/01/19 11:26:15;;;;;;;21.80;10.90;;;;;;;;;;5068158;28;20452;-67
2023/01/19 11:28:50;;;;;;;25.70;10.60;;;;;;;;;;5070134;28;20405;-69
2023/01/19 11:31:35;;;;;;;28.97;13.63;;;;;;;;;;5068921;28;20444;-69
2023/01/19 11:34:03;;;;;;;13.93;10.00;;;;;;;;;;5052729;28;20436;-68
2023/01/19 11:36:32;;;;;;;17.80;9.27;;;;;;;;;;5068635;28;20498;-68
2023/01/19 11:39:22;;;;;;;17.67;10.70;;;;;;;;;;5069941;28;20408;-68
2023/01/19 11:41:54;;;;;;;18.70;9.40;;;;;;;;;;5069455;28;20412;-68
2023/01/19 11:44:22;;;;;;;12.57;11.20;;;;;;;;;;5069206;28;20464;-67
2023/01/19 11:46:55;;;;;;;15.43;10.37;;;;;;;;;;5068603;28;20547;-69
2023/01/19 11:49:44;;;;;;;20.77;10.10;;;;;;;;;;5069500;28;20538;-68
2023/01/19 11:52:27;;;;;;;49.53;13.43;;;;;;;;;;5069213;28;20405;-67
2023/01/19 11:55:27;;;;;;;91.10;19.43;;;;;;;;;;5069589;28;20817;-68
2023/01/19 11:57:53;;;;;;;78.53;16.57;;;;;;;;;;5036457;28;20455;-68
2023/01/19 12:00:21;;;;;;;63.30;14.50;;;;;;;;;;5069099;28;20405;-68
2023/01/19 12:02:51;;;;;;;63.80;15.73;;;;;;;;;;5069204;28;20211;-67
2023/01/19 12:05:18;;;;;;;69.27;15.20;;;;;;;;;;5068413;28;20415;-68
2023/01/19 12:07:46;;;;;;;13.73;8.90;;;;;;;;;;5069428;28;20431;-69
2023/01/19 12:10:25;;;;;;;13.47;9.23;;;;;;;;;;5066827;28;20468;-68
2023/01/19 12:12:51;;;;;;;53.80;13.47;;;;;;;;;;5070263;28;20404;-69
2023/01/19 12:15:29;;;;;;;28.77;10.47;;;;;;;;;;5072554;28;20462;-68
2023/01/19 12:17:58;;;;;;;15.87;9.53;;;;;;;;;;5067939;28;20532;-68
2023/01/19 12:20:26;;;;;;;11.30;7.33;;;;;;;;;;5073224;28;20459;-66
2023/01/19 12:23:08;;;;;;;17.80;8.87;;;;;;;;;;5073763;28;20408;-68
2023/01/19 12:25:57;;;;;;;22.63;10.47;;;;;;;;;;5072360;28;20463;-70
2023/01/19 12:28:30;;;;;;;11.10;8.27;;;;;;;;;;5069587;28;20420;-68
2023/01/19 12:30:57;;;;;;;10.20;9.03;;;;;;;;;;5060064;28;20513;-68
2023/01/19 12:33:38;;;;;;;19.53;9.13;;;;;;;;;;5073833;28;20760;-68
2023/01/19 12:36:15;;;;;;;21.17;8.87;;;;;;;;;;5073718;28;20509;-68
2023/01/19 12:38:43;;;;;;;23.73;9.20;;;;;;;;;;5073553;28;20416;-67
2023/01/19 12:41:27;;;;;;;13.47;8.63;;;;;;;;;;5070222;28;20945;-68
2023/01/19 12:44:10;;;;;;;14.30;8.23;;;;;;;;;;5067728;28;20401;-67
2023/01/19 12:46:37;;;;;;;16.93;9.30;;;;;;;;;;5072118;28;20792;-70
2023/01/19 12:49:09;;;;;;;19.03;9.00;;;;;;;;;;5053417;28;20553;-67
2023/01/19 12:51:35;;;;;;;21.97;10.70;;;;;;;;;;5056546;28;20424;-68
2023/01/19 12:54:05;;;;;;;16.43;8.07;;;;;;;;;;5073419;28;20917;-65
2023/01/19 12:56:36;;;;;;;10.53;9.37;;;;;;;;;;5073362;28;20197;-68
2023/01/19 12:59:03;;;;;;;18.63;8.90;;;;;;;;;;5074580;28;20748;-68
2023/01/19 13:01:29;;;;;;;14.23;8.97;;;;;;;;;;5070271;28;20464;-66
2023/01/19 13:04:30;;;;;;;16.10;9.20;;;;;;;;;;5073420;28;20420;-67
2023/01/19 13:07:04;;;;;;;11.10;8.53;;;;;;;;;;5073226;28;20425;-68
2023/01/19 13:09:37;;;;;;;12.60;8.83;;;;;;;;;;5073092;28;20456;-67
2023/01/19 13:12:24;;;;;;;10.37;8.30;;;;;;;;;;5070900;28;20489;-66
2023/01/19 13:14:49;;;;;;;13.93;9.00;;;;;;;;;;5070571;28;20502;-68
2023/01/19 13:17:24;;;;;;;19.20;9.77;;;;;;;;;;5073808;28;20535;-66
2023/01/19 13:20:23;;;;;;;12.10;9.70;;;;;;;;;;5073878;28;20503;-67
2023/01/19 13:22:50;;;;;;;30.73;12.07;;;;;;;;;;5067486;28;20436;-67
2023/01/19 13:25:34;;;;;;;17.70;10.83;;;;;;;;;;5071386;28;20816;-67
2023/01/19 13:28:00;;;;;;;13.43;9.83;;;;;;;;;;5068522;28;20412;-67
2023/01/19 13:30:28;;;;;;;16.83;9.90;;;;;;;;;;5072109;28;20470;-66
2023/01/19 13:33:00;;;;;;;12.27;9.43;;;;;;;;;;5071284;28;20941;-67
2023/01/19 13:35:25;;;;;;;13.93;9.13;;;;;;;;;;5072198;28;20452;-67
2023/01/19 13:37:51;;;;;;;16.90;9.00;;;;;;;;;;5072512;28;20992;-67
2023/01/19 13:40:21;;;;;;;21.87;10.30;;;;;;;;;;5072625;28;20170;-69
2023/01/19 13:42:48;;;;;;;14.73;8.93;;;;;;;;;;5070372;28;20257;-68
2023/01/19 13:45:35;;;;;;;38.37;12.77;;;;;;;;;;5072288;28;20432;-69
2023/01/19 13:48:05;;;;;;;23.57;11.80;;;;;;;;;;5067945;28;20436;-66
2023/01/19 13:50:33;;;;;;;11.80;10.40;;;;;;;;;;5063799;28;20448;-68
2023/01/19 13:53:00;;;;;;;13.70;10.57;;;;;;;;;;5070497;28;20816;-68
2023/01/19 13:55:27;;;;;;;14.07;9.70;;;;;;;;;;5072464;28;20412;-68
2023/01/19 13:57:53;;;;;;;11.63;9.20;;;;;;;;;;5072082;28;20405;-68
2023/01/19 14:00:24;;;;;;;10.80;9.10;;;;;;;;;;5071952;28;20412;-68
2023/01/19 14:02:51;;;;;;;15.90;9.60;;;;;;;;;;5066610;28;20495;-68
2023/01/19 14:05:22;;;;;;;14.00;9.03;;;;;;;;;;5071708;28;20538;-68
2023/01/19 14:07:47;;;;;;;12.10;9.70;;;;;;;;;;5071890;28;20419;-68
2023/01/19 14:10:15;;;;;;;12.10;9.50;;;;;;;;;;5071700;28;20933;-67
2023/01/19 14:12:42;;;;;;;16.07;9.17;;;;;;;;;;5070942;28;20202;-66
2023/01/19 14:15:13;;;;;;;18.37;13.10;;;;;;;;;;5071157;28;20777;-66
2023/01/19 14:17:40;;;;;;;13.60;9.90;;;;;;;;;;5070550;28;20929;-69
2023/01/19 14:20:26;;;;;;;16.80;10.80;;;;;;;;;;5065316;28;20447;-67
2023/01/19 14:22:51;;;;;;;11.43;8.50;;;;;;;;;;5072071;28;20494;-66
2023/01/19 14:25:34;;;;;;;21.47;12.30;;;;;;;;;;5072320;28;20467;-67
2023/01/19 14:28:29;;;;;;;12.37;10.40;;;;;;;;;;5072592;28;20641;-69
2023/01/19 14:31:00;;;;;;;10.77;8.13;;;;;;;;;;5070953;28;20447;-69
2023/01/19 14:33:32;;;;;;;9.30;8.27;;;;;;;;;;5071740;28;20519;-68
2023/01/19 14:36:13;;;;;;;16.53;7.97;;;;;;;;;;5070994;28;20436;-67
2023/01/19 14:38:46;;;;;;;11.47;8.20;;;;;;;;;;5055270;28;20534;-66
2023/01/19 14:41:20;;;;;;;17.23;8.23;;;;;;;;;;5071086;28;20408;-67
2023/01/19 14:43:46;;;;;;;14.30;8.30;;;;;;;;;;5071760;28;20404;-66
2023/01/19 14:46:18;;;;;;;38.27;11.00;;;;;;;;;;5071868;28;20789;-67